Time;durP1;ratioP1;P1;durP2;ratioP2;P2;SDS_P1;SDS_P2;PMS_P1;PMS_P2;Temp;Humidity;BMP_temperature;BMP_pressure;BME280_temperature;BME280_humidity;BME280_pressure;Samples;Min_cycle;Max_cycle;Signal;HPM_P1;HPM_P2
2021/06/16 00:01:45;;;;;;;3.30;3.00;;;;;;;18.34;64.47;93632.66;6203351;23;20012;-79
2021/06/16 00:04:10;;;;;;;6.47;3.13;;;;;;;18.32;64.92;93638.38;6204423;23;20082;-79
2021/06/16 00:06:36;;;;;;;3.80;3.30;;;;;;;18.39;64.65;93635.09;6211421;23;20099;-78
2021/06/16 00:09:04;;;;;;;3.20;2.90;;;;;;;18.26;65.52;93633.59;6197300;23;20020;-78
2021/06/16 00:11:29;;;;;;;9.35;3.40;;;;;;;18.29;65.20;93628.34;6134722;23;20025;-78
2021/06/16 00:13:55;;;;;;;3.47;3.15;;;;;;;18.29;65.47;93628.34;6196637;23;20020;-79
2021/06/16 00:16:21;;;;;;;4.45;3.97;;;;;;;18.24;65.14;93623.22;6195937;23;20398;-79
2021/06/16 00:18:47;;;;;;;5.00;3.70;;;;;;;18.37;65.04;93632.78;6207186;23;20293;-79
2021/06/16 00:21:13;;;;;;;6.05;3.63;;;;;;;18.32;65.20;93633.03;6195852;23;20762;-79
2021/06/16 00:23:39;;;;;;;9.65;5.53;;;;;;;18.33;64.97;93609.69;6201413;23;20091;-79
2021/06/16 00:26:05;;;;;;;6.53;5.13;;;;;;;18.31;64.93;93610.06;6196048;23;20108;-79
2021/06/16 00:28:30;;;;;;;6.65;3.38;;;;;;;18.36;64.59;93607.16;6202987;23;20019;-78
2021/06/16 00:30:55;;;;;;;4.28;3.58;;;;;;;18.39;64.67;93609.13;6174202;23;20001;-79
2021/06/16 00:33:21;;;;;;;4.57;3.42;;;;;;;18.40;64.39;93600.00;6200445;23;20020;-79
2021/06/16 00:35:46;;;;;;;3.45;3.10;;;;;;;18.22;64.76;93596.06;6200204;23;20048;-79
2021/06/16 00:38:12;;;;;;;4.43;2.60;;;;;;;18.37;64.32;93595.34;6200857;23;20024;-79
2021/06/16 00:40:37;;;;;;;3.38;2.60;;;;;;;18.50;63.82;93604.84;6208699;23;20012;-79
2021/06/16 00:43:06;;;;;;;2.92;2.53;;;;;;;18.38;63.90;93594.19;6201242;23;20016;-78
2021/06/16 00:45:31;;;;;;;4.57;3.00;;;;;;;18.49;63.39;93584.56;6211103;23;20258;-78
2021/06/16 00:47:57;;;;;;;2.97;2.40;;;;;;;18.56;63.62;93592.81;6200573;23;20012;-79
2021/06/16 00:50:28;;;;;;;5.10;2.80;;;;;;;18.44;63.51;93582.13;6203562;23;20151;-79
2021/06/16 00:52:54;;;;;;;4.85;2.90;;;;;;;18.51;63.77;93584.22;6206246;23;20087;-78
2021/06/16 00:55:19;;;;;;;5.65;2.83;;;;;;;18.48;63.13;93574.97;6196885;23;20530;-79
2021/06/16 00:57:48;;;;;;;4.15;2.95;;;;;;;18.52;62.95;93577.75;6178173;23;20491;-79
2021/06/16 01:00:21;;;;;;;4.00;2.30;;;;;;;18.41;63.26;93580.16;6201601;23;20040;-79
2021/06/16 01:02:54;;;;;;;3.33;2.83;;;;;;;18.55;63.12;93591.25;6177068;23;20383;-78
2021/06/16 01:05:23;;;;;;;2.83;2.50;;;;;;;18.55;63.27;93579.75;6173143;23;20085;-80
2021/06/16 01:07:57;;;;;;;2.80;2.55;;;;;;;18.63;63.10;93581.50;6209682;23;20422;-79
2021/06/16 01:10:23;;;;;;;4.35;2.88;;;;;;;18.61;63.03;93567.69;6198157;23;20090;-80
2021/06/16 01:13:01;;;;;;;3.40;3.10;;;;;;;18.70;62.48;93580.91;6176605;23;20423;-80
2021/06/16 01:15:32;;;;;;;2.65;2.42;;;;;;;18.56;62.79;93566.03;6198944;23;20192;-79
2021/06/16 01:18:01;;;;;;;3.47;2.80;;;;;;;18.66;63.08;93577.38;6175248;23;20249;-80
2021/06/16 01:20:26;;;;;;;3.55;2.60;;;;;;;18.71;62.74;93582.47;6205455;23;20443;-79
2021/06/16 01:22:58;;;;;;;4.45;2.47;;;;;;;18.69;63.11;93590.06;6205777;23;20044;-81
2021/06/16 01:25:27;;;;;;;4.50;3.08;;;;;;;18.58;63.22;93577.16;6201974;23;20016;-80
2021/06/16 01:27:53;;;;;;;3.80;2.90;;;;;;;18.66;63.13;93586.19;6203825;23;20011;-80
2021/06/16 01:30:19;;;;;;;3.28;2.65;;;;;;;18.74;62.98;93592.47;6200714;23;20482;-78
2021/06/16 01:32:47;;;;;;;9.05;3.55;;;;;;;18.75;62.76;93584.09;6200219;23;20020;-79
2021/06/16 01:35:13;;;;;;;3.00;2.30;;;;;;;18.71;63.34;93579.78;6205856;23;20036;-78
2021/06/16 01:37:39;;;;;;;5.60;3.65;;;;;;;18.60;63.57;93577.63;6175058;23;20016;-79
2021/06/16 01:40:05;;;;;;;2.80;2.60;;;;;;;18.63;63.44;93575.34;6212505;23;20008;-78
2021/06/16 01:42:31;;;;;;;4.30;3.40;;;;;;;18.65;63.47;93579.25;6201911;23;20028;-80
2021/06/16 01:44:58;;;;;;;4.20;3.13;;;;;;;18.49;64.00;93573.84;6201239;23;20084;-80
2021/06/16 01:47:24;;;;;;;4.65;3.22;;;;;;;18.47;64.17;93578.00;6174706;23;20439;-78
2021/06/16 01:49:55;;;;;;;5.60;3.20;;;;;;;18.54;64.09;93578.97;6201483;23;20020;-80
2021/06/16 01:52:24;;;;;;;5.20;3.50;;;;;;;18.46;64.40;93587.13;6174280;23;20000;-79
2021/06/16 01:54:50;;;;;;;3.85;2.97;;;;;;;18.52;63.89;93575.81;6200271;23;20343;-79
2021/06/16 01:57:17;;;;;;;6.53;3.42;;;;;;;18.48;64.26;93588.34;6197264;23;20059;-80
2021/06/16 01:59:48;;;;;;;8.95;3.38;;;;;;;18.38;64.70;93583.47;6198304;23;20075;-80
2021/06/16 02:02:13;;;;;;;5.60;3.30;;;;;;;18.30;64.62;93568.38;6205120;23;20506;-79
2021/06/16 02:04:39;;;;;;;3.78;3.35;;;;;;;18.45;64.51;93594.38;6200922;23;20024;-79
2021/06/16 02:07:14;;;;;;;5.20;3.00;;;;;;;18.39;64.73;93586.94;6199685;23;20411;-79
2021/06/16 02:09:40;;;;;;;10.63;4.63;;;;;;;18.38;64.60;93586.16;6213244;23;20000;-80
2021/06/16 02:12:10;;;;;;;3.38;2.97;;;;;;;18.41;64.66;93585.50;6159874;23;20021;-78
2021/06/16 02:14:36;;;;;;;4.93;3.25;;;;;;;18.38;64.82;93575.47;6203299;23;20044;-79
2021/06/16 02:17:08;;;;;;;5.72;3.42;;;;;;;18.32;64.84;93576.84;6198232;23;20074;-80
2021/06/16 02:19:34;;;;;;;5.72;3.00;;;;;;;18.34;64.52;93582.63;6208869;23;20013;-80
2021/06/16 02:22:01;;;;;;;4.05;3.05;;;;;;;18.37;64.38;93589.97;6176532;23;20066;-79
2021/06/16 02:24:27;;;;;;;5.70;3.78;;;;;;;18.36;64.28;93584.97;6199625;23;20016;-79
2021/06/16 02:26:53;;;;;;;4.15;3.75;;;;;;;18.45;64.09;93591.72;6202689;23;20051;-79
2021/06/16 02:29:20;;;;;;;4.32;3.05;;;;;;;18.49;64.19;93586.44;6205635;23;20017;-78
2021/06/16 02:31:46;;;;;;;3.17;2.88;;;;;;;18.50;63.91;93582.66;6204976;23;20214;-80
2021/06/16 02:34:12;;;;;;;5.25;2.95;;;;;;;18.46;63.61;93577.22;6201170;23;20005;-80
2021/06/16 02:36:43;;;;;;;5.25;3.50;;;;;;;18.34;63.96;93579.94;6203245;23;20000;-79
2021/06/16 02:39:15;;;;;;;6.00;3.65;;;;;;;18.47;64.01;93589.47;6200945;23;20024;-79
2021/06/16 02:41:42;;;;;;;5.70;3.40;;;;;;;18.57;63.41;93602.38;6189907;23;20012;-79
2021/06/16 02:44:08;;;;;;;5.00;3.25;;;;;;;18.47;63.55;93589.47;6170946;23;20055;-79
2021/06/16 02:46:35;;;;;;;3.58;3.25;;;;;;;18.51;63.46;93594.91;6206017;23;20048;-79
2021/06/16 02:49:03;;;;;;;9.27;3.17;;;;;;;18.57;63.37;93596.25;6212624;23;20042;-79
2021/06/16 02:51:31;;;;;;;5.20;3.33;;;;;;;18.52;63.84;93588.47;6199831;23;20052;-79
2021/06/16 02:53:57;;;;;;;6.63;3.25;;;;;;;18.49;63.59;93591.78;6197537;23;20070;-80
2021/06/16 02:56:23;;;;;;;5.60;3.20;;;;;;;18.41;63.76;93574.78;6198037;23;20021;-80
2021/06/16 02:58:50;;;;;;;3.15;2.80;;;;;;;18.42;63.98;93587.03;6172004;23;20009;-80
2021/06/16 03:01:19;;;;;;;4.55;3.05;;;;;;;18.44;63.70;93590.16;6193115;23;20438;-79
2021/06/16 03:03:48;;;;;;;5.10;3.40;;;;;;;18.47;63.55;93589.47;6200964;23;20066;-79
2021/06/16 03:06:18;;;;;;;9.52;2.78;;;;;;;18.42;63.80;93592.38;6172822;23;20066;-79
2021/06/16 03:08:45;;;;;;;5.93;3.20;;;;;;;18.44;63.54;93590.16;6201119;23;20349;-80
2021/06/16 03:11:12;;;;;;;4.25;3.35;;;;;;;18.44;63.48;93590.16;6172989;23;20016;-78
2021/06/16 03:13:38;;;;;;;5.82;3.20;;;;;;;18.46;63.45;93595.94;6198310;23;20166;-80
2021/06/16 03:16:06;;;;;;;5.82;2.97;;;;;;;18.47;63.54;93602.09;6211236;23;20071;-78
2021/06/16 03:18:36;;;;;;;6.75;2.95;;;;;;;18.49;63.78;93597.94;6198977;23;20347;-79
2021/06/16 03:21:03;;;;;;;6.63;3.25;;;;;;;18.49;63.52;93595.25;6200089;23;20016;-79
2021/06/16 03:23:29;;;;;;;5.15;3.03;;;;;;;18.49;63.33;93597.16;6201377;23;20363;-78
2021/06/16 03:25:56;;;;;;;5.85;3.10;;;;;;;18.58;63.21;93608.50;6200648;23;20039;-79
2021/06/16 03:28:24;;;;;;;4.93;3.28;;;;;;;18.57;63.35;93615.75;6199881;23;20245;-79
2021/06/16 03:30:52;;;;;;;3.45;2.78;;;;;;;18.59;62.74;93608.16;6204535;23;20004;-79
2021/06/16 03:33:22;;;;;;;4.80;3.17;;;;;;;18.59;62.94;93618.88;6200930;23;20021;-79
2021/06/16 03:35:48;;;;;;;4.22;3.15;;;;;;;18.52;63.12;93607.94;6203671;23;20152;-78
2021/06/16 03:38:14;;;;;;;5.40;3.63;;;;;;;18.61;63.13;93599.81;6174728;23;20022;-79
2021/06/16 03:40:42;;;;;;;5.05;3.70;;;;;;;18.68;62.52;93593.84;6193096;23;20017;-78
2021/06/16 03:43:07;;;;;;;6.82;3.30;;;;;;;18.81;62.00;93608.72;6208972;23;20336;-79
2021/06/16 03:45:33;;;;;;;10.00;3.13;;;;;;;18.92;61.79;93615.09;6210541;23;20135;-78
2021/06/16 03:48:01;;;;;;;5.28;2.83;;;;;;;19.03;61.72;93616.16;6201564;23;20040;-80
2021/06/16 03:50:28;;;;;;;5.28;3.45;;;;;;;19.04;61.45;93610.47;6199406;23;20527;-78
2021/06/16 03:52:55;;;;;;;4.18;2.88;;;;;;;19.08;61.91;93613.22;6198035;23;20555;-78
2021/06/16 03:55:22;;;;;;;8.70;3.70;;;;;;;19.39;60.93;93612.44;6166893;23;20346;-80
2021/06/16 03:57:48;;;;;;;5.07;2.78;;;;;;;19.38;60.58;93605.53;6207646;23;20098;-79
2021/06/16 04:00:14;;;;;;;6.07;3.33;;;;;;;19.34;60.66;93610.81;6198779;23;20016;-79
2021/06/16 04:02:40;;;;;;;3.33;2.83;;;;;;;19.54;60.69;93608.22;6170274;23;20016;-79
2021/06/16 04:05:08;;;;;;;7.97;3.45;;;;;;;19.40;60.92;93614.75;6198879;23;20292;-80
2021/06/16 04:07:35;;;;;;;3.33;2.83;;;;;;;19.27;60.66;93621.34;6173115;23;20070;-81
2021/06/16 04:10:05;;;;;;;3.47;3.13;;;;;;;19.25;61.12;93612.88;6174418;23;20006;-80
2021/06/16 04:12:31;;;;;;;4.82;3.17;;;;;;;19.34;61.07;93626.88;6159300;23;20039;-79
2021/06/16 04:14:56;;;;;;;4.43;2.78;;;;;;;19.41;60.84;93627.03;6171774;23;20534;-78
2021/06/16 04:17:23;;;;;;;5.72;3.50;;;;;;;19.38;61.49;93611.66;6203937;23;20027;-78
2021/06/16 04:19:50;;;;;;;4.28;3.10;;;;;;;19.38;60.68;93616.25;6198726;23;20017;-79
2021/06/16 04:22:17;;;;;;;3.72;2.60;;;;;;;19.83;59.88;93629.16;6209156;23;20013;-80
2021/06/16 04:24:42;;;;;;;5.80;2.78;;;;;;;20.04;57.95;93632.28;6172975;23;20070;-80
2021/06/16 04:27:08;;;;;;;7.00;3.42;;;;;;;20.15;57.81;93632.53;6199253;23;20016;-80
2021/06/16 04:29:34;;;;;;;4.07;2.35;;;;;;;20.41;57.52;93629.25;6202491;23;20402;-79
2021/06/16 04:32:01;;;;;;;3.90;2.00;;;;;;;20.74;55.88;93622.22;6201850;23;20008;-80
2021/06/16 04:34:26;;;;;;;3.05;2.42;;;;;;;21.02;55.13;93626.53;6206226;23;20008;-79
2021/06/16 04:36:52;;;;;;;3.83;2.25;;;;;;;21.49;54.46;93620.84;6204263;23;20458;-79
2021/06/16 04:39:18;;;;;;;5.60;2.53;;;;;;;21.39;53.67;93605.31;6199130;23;20016;-80
2021/06/16 04:41:44;;;;;;;4.68;2.20;;;;;;;21.16;53.67;93619.53;6204141;23;20027;-79
2021/06/16 04:44:10;;;;;;;3.38;2.15;;;;;;;21.63;53.26;93618.34;6173466;23;20094;-79
2021/06/16 04:46:36;;;;;;;2.90;2.55;;;;;;;21.92;52.03;93614.94;6186100;23;20013;-79
2021/06/16 04:49:02;;;;;;;4.22;2.58;;;;;;;21.88;51.96;93624.09;6215765;23;20061;-78
2021/06/16 04:51:27;;;;;;;4.68;2.40;;;;;;;22.22;51.93;93623.06;6175074;23;20108;-79
2021/06/16 04:53:53;;;;;;;4.50;1.90;;;;;;;23.21;49.72;93613.34;6202370;23;20112;-79
2021/06/16 04:56:18;;;;;;;4.10;2.08;;;;;;;24.19;46.40;93624.53;6174091;23;20021;-78
2021/06/16 04:58:47;;;;;;;2.95;1.65;;;;;;;25.02;45.32;93626.00;6202185;23;20051;-79
2021/06/16 05:01:12;;;;;;;1.67;1.58;;;;;;;26.24;42.72;93628.34;6210866;23;20004;-79
2021/06/16 05:03:38;;;;;;;18.45;1.88;;;;;;;26.29;41.37;93614.41;6215520;23;20439;-79
2021/06/16 05:06:07;;;;;;;5.05;1.77;;;;;;;27.25;40.21;93607.78;6201782;23;20504;-81
2021/06/16 05:08:32;;;;;;;1.90;1.52;;;;;;;27.84;38.52;93612.00;6202224;23;20050;-79
2021/06/16 05:10:58;;;;;;;4.68;1.80;;;;;;;28.69;37.53;93619.25;6178975;23;20472;-79
2021/06/16 05:13:24;;;;;;;2.78;1.67;;;;;;;29.28;35.89;93618.88;6161380;23;20498;-80
2021/06/16 05:15:51;;;;;;;4.20;1.58;;;;;;;29.48;35.32;93614.34;6204352;23;20031;-79
2021/06/16 05:18:18;;;;;;;1.90;1.40;;;;;;;29.51;35.42;93610.81;6201399;23;20518;-79
2021/06/16 05:20:44;;;;;;;2.53;1.70;;;;;;;29.37;35.47;93632.78;6200961;23;20447;-80
2021/06/16 05:23:11;;;;;;;2.53;1.60;;;;;;;29.94;35.01;93623.75;6207293;23;20355;-79
2021/06/16 05:25:39;;;;;;;3.67;1.30;;;;;;;29.80;34.61;93618.50;6201163;23;20406;-79
2021/06/16 05:28:05;;;;;;;4.07;1.48;;;;;;;29.99;34.06;93613.16;6197977;23;20427;-80
2021/06/16 05:30:30;;;;;;;5.72;1.67;;;;;;;30.31;33.25;93622.69;6203542;23;20100;-80
2021/06/16 05:32:56;;;;;;;5.22;1.38;;;;;;;29.80;34.04;93627.47;6198794;23;20418;-79
2021/06/16 05:35:21;;;;;;;5.07;1.50;;;;;;;29.84;34.54;93632.84;6204533;23;20044;-79
2021/06/16 05:37:47;;;;;;;6.78;1.60;;;;;;;29.60;34.85;93638.28;6208441;23;20099;-79
2021/06/16 05:40:14;;;;;;;2.13;1.50;;;;;;;29.70;34.58;93639.28;6200750;23;20462;-79
2021/06/16 05:42:40;;;;;;;6.90;1.73;;;;;;;29.25;35.76;93636.81;6203909;23;20327;-79
2021/06/16 05:45:07;;;;;;;5.65;2.08;;;;;;;28.41;37.41;93649.50;6201491;23;20319;-79
2021/06/16 05:47:32;;;;;;;2.50;1.70;;;;;;;27.95;38.13;93649.91;6199910;23;20020;-80
2021/06/16 05:49:58;;;;;;;4.32;2.00;;;;;;;27.33;40.09;93642.59;6200246;23;20406;-80
2021/06/16 05:52:24;;;;;;;3.17;1.90;;;;;;;26.75;40.37;93640.56;6200291;23;20016;-79
2021/06/16 05:54:50;;;;;;;4.00;1.77;;;;;;;26.38;40.97;93643.03;6210060;23;20004;-79
2021/06/16 05:57:15;;;;;;;3.40;2.00;;;;;;;26.07;41.68;93650.81;6193139;23;20027;-80
2021/06/16 05:59:41;;;;;;;5.90;2.20;;;;;;;25.93;42.54;93650.81;6199329;23;20100;-79
2021/06/16 06:02:08;;;;;;;4.28;2.22;;;;;;;25.64;42.43;93644.66;6203985;23;20091;-79
2021/06/16 06:04:34;;;;;;;5.47;1.80;;;;;;;25.29;43.09;93644.59;6166916;23;20107;-80
2021/06/16 06:07:00;;;;;;;3.50;2.03;;;;;;;25.60;43.12;93654.72;6171146;23;20005;-79
2021/06/16 06:09:26;;;;;;;4.78;2.00;;;;;;;26.44;41.39;93653.06;6153170;23;20398;-79
2021/06/16 06:11:51;;;;;;;2.47;1.73;;;;;;;27.38;39.31;93649.53;6158693;23;20100;-78
2021/06/16 06:14:16;;;;;;;4.03;1.70;;;;;;;27.45;39.27;93646.78;6168520;23;20025;-78
2021/06/16 06:16:42;;;;;;;9.18;2.05;;;;;;;27.21;39.71;93645.78;6174826;23;20012;-80
2021/06/16 06:19:07;;;;;;;7.53;1.95;;;;;;;27.66;38.35;93654.03;6188825;23;20440;-78
2021/06/16 06:21:33;;;;;;;4.07;2.00;;;;;;;28.06;38.03;93657.94;6170633;23;20273;-78
2021/06/16 06:23:59;;;;;;;1.73;1.55;;;;;;;28.19;38.87;93667.19;6170025;23;20092;-79
2021/06/16 06:26:25;;;;;;;3.13;1.58;;;;;;;27.69;38.63;93661.38;6173967;23;20075;-78
2021/06/16 06:28:50;;;;;;;6.15;2.35;;;;;;;27.36;39.71;93668.19;6169935;23;20648;-80
2021/06/16 06:31:16;;;;;;;5.38;2.28;;;;;;;27.19;40.60;93669.81;6180248;23;20526;-79
2021/06/16 06:33:41;;;;;;;3.70;2.58;;;;;;;26.79;40.89;93668.44;6181358;23;20491;-79
2021/06/16 06:36:09;;;;;;;11.23;2.10;;;;;;;26.66;41.01;93661.91;6168858;23;20013;-79
2021/06/16 06:38:35;;;;;;;2.60;1.92;;;;;;;26.59;41.42;93659.19;6165730;23;20475;-79
2021/06/16 06:41:00;;;;;;;2.60;2.10;;;;;;;27.02;41.71;93649.78;6176675;23;20016;-79
2021/06/16 06:43:26;;;;;;;3.58;1.65;;;;;;;27.21;40.67;93651.22;6178672;23;20009;-81
2021/06/16 06:45:52;;;;;;;4.75;2.03;;;;;;;26.81;40.40;93671.53;6171176;23;20005;-79
2021/06/16 06:48:17;;;;;;;3.95;2.13;;;;;;;26.82;41.42;93678.50;6170013;23;20025;-78
2021/06/16 06:50:42;;;;;;;5.82;2.30;;;;;;;26.57;40.93;93680.53;6170551;23;20029;-81
2021/06/16 06:53:08;;;;;;;3.45;2.38;;;;;;;26.28;42.30;93682.53;6176382;23;20071;-79
2021/06/16 06:55:33;;;;;;;4.32;2.40;;;;;;;25.96;42.43;93687.94;6167715;23;20061;-80
2021/06/16 06:57:59;;;;;;;3.67;2.25;;;;;;;25.90;43.66;93678.69;6171307;23;20005;-80
2021/06/16 07:00:24;;;;;;;2.80;1.95;;;;;;;25.46;44.43;93687.88;6170256;23;20060;-80
2021/06/16 07:02:50;;;;;;;4.45;2.72;;;;;;;25.30;44.42;93690.19;6167862;23;20021;-79
2021/06/16 07:05:16;;;;;;;6.43;2.15;;;;;;;24.94;44.98;93700.13;6198706;23;20028;-79
2021/06/16 07:07:42;;;;;;;5.32;2.75;;;;;;;25.06;45.68;93700.97;6172408;23;20023;-79
2021/06/16 07:10:08;;;;;;;6.57;2.22;;;;;;;24.94;45.30;93700.13;6172742;23;20344;-79
2021/06/16 07:12:34;;;;;;;4.88;2.70;;;;;;;25.09;46.30;93702.88;6201883;23;20000;-78
2021/06/16 07:14:59;;;;;;;8.60;3.25;;;;;;;25.11;45.80;93704.06;6203450;23;20017;-80
2021/06/16 07:17:25;;;;;;;3.60;2.30;;;;;;;25.26;46.05;93694.84;6172111;23;20020;-78
2021/06/16 07:19:51;;;;;;;5.55;2.50;;;;;;;25.91;45.57;93701.09;6207193;23;20012;-78
2021/06/16 07:22:16;;;;;;;4.07;2.03;;;;;;;26.50;43.19;93688.66;6208207;23;20320;-79
2021/06/16 07:24:42;;;;;;;3.60;2.33;;;;;;;26.38;42.52;93675.53;6201019;23;20004;-79
2021/06/16 07:27:09;;;;;;;4.18;1.95;;;;;;;26.32;42.10;93687.94;6200373;23;20020;-79
2021/06/16 07:29:34;;;;;;;3.95;3.25;;;;;;;26.33;42.41;93679.44;6202996;23;20027;-78
2021/06/16 07:32:04;;;;;;;3.20;2.40;;;;;;;26.35;42.88;93679.00;6204734;23;20017;-79
2021/06/16 07:34:29;;;;;;;6.30;2.17;;;;;;;26.93;41.44;93679.25;6197563;23;20354;-79
2021/06/16 07:36:55;;;;;;;4.55;2.25;;;;;;;27.09;40.88;93676.84;6212333;23;20301;-81
2021/06/16 07:39:20;;;;;;;6.85;2.70;;;;;;;27.21;41.13;93666.72;6171915;23;20521;-78
2021/06/16 07:41:46;;;;;;;3.50;2.20;;;;;;;27.24;41.99;93671.34;6197700;23;20012;-79
2021/06/16 07:44:12;;;;;;;5.60;2.00;;;;;;;28.40;39.67;93658.81;6205431;23;20074;-80
2021/06/16 07:46:37;;;;;;;3.00;2.60;;;;;;;28.57;37.46;93652.44;6210223;23;20071;-78
2021/06/16 07:49:03;;;;;;;5.90;2.75;;;;;;;28.56;38.80;93656.31;6201600;23;20005;-79
2021/06/16 07:51:29;;;;;;;15.60;3.20;;;;;;;29.25;38.96;93657.81;6214235;23;20016;-79
2021/06/16 07:53:54;;;;;;;5.22;2.35;;;;;;;29.61;37.04;93660.84;6201876;23;20024;-80
2021/06/16 07:56:19;;;;;;;5.32;1.48;;;;;;;29.78;36.86;93659.00;6199459;23;20020;-79
2021/06/16 07:58:45;;;;;;;4.00;2.05;;;;;;;29.91;37.36;93660.00;6173470;23;20009;-79
2021/06/16 08:01:11;;;;;;;6.70;2.47;;;;;;;30.26;36.55;93664.84;6201101;23;20010;-80
2021/06/16 08:03:37;;;;;;;3.10;1.77;;;;;;;30.54;35.09;93658.88;6203277;23;20023;-79
2021/06/16 08:06:02;;;;;;;5.25;1.80;;;;;;;30.38;36.32;93672.44;6200800;23;20016;-78
2021/06/16 08:08:28;;;;;;;3.72;2.17;;;;;;;30.23;36.22;93665.69;6173014;23;20055;-81
2021/06/16 08:10:53;;;;;;;3.38;1.98;;;;;;;29.92;35.98;93670.47;6201067;23;20052;-79
2021/06/16 08:13:19;;;;;;;3.83;1.85;;;;;;;29.91;37.44;93679.09;6210059;23;20332;-78
2021/06/16 08:15:44;;;;;;;3.45;2.20;;;;;;;30.96;36.12;93672.91;6174223;23;20001;-80
2021/06/16 08:18:12;;;;;;;1.92;1.65;;;;;;;32.24;33.91;93677.09;6203547;23;20027;-80
2021/06/16 08:20:38;;;;;;;2.83;1.80;;;;;;;33.19;30.19;93686.69;6199961;23;20027;-80
2021/06/16 08:23:06;;;;;;;2.67;1.58;;;;;;;33.98;30.24;93682.38;6207413;23;20426;-81
2021/06/16 08:25:34;;;;;;;2.85;1.67;;;;;;;34.41;29.55;93685.28;6209069;23;20115;-81
2021/06/16 08:28:00;;;;;;;3.13;2.10;;;;;;;34.04;29.41;93695.09;6212749;23;20005;-80
2021/06/16 08:30:26;;;;;;;3.33;1.83;;;;;;;33.53;30.45;93692.34;6199145;23;20016;-80
2021/06/16 08:32:52;;;;;;;3.40;1.80;;;;;;;32.88;31.49;93700.06;6200918;23;20043;-80
2021/06/16 08:35:17;;;;;;;3.15;2.00;;;;;;;32.19;31.76;93702.22;6189611;23;20091;-80
2021/06/16 08:37:43;;;;;;;3.25;2.03;;;;;;;31.90;32.50;93701.34;6207547;23;20016;-80
2021/06/16 08:40:09;;;;;;;3.08;1.80;;;;;;;31.47;33.60;93689.81;6207898;23;20005;-80
2021/06/16 08:42:35;;;;;;;2.60;1.95;;;;;;;30.39;34.38;93697.72;6211123;23;20020;-80
2021/06/16 08:45:06;;;;;;;4.55;2.10;;;;;;;30.46;34.78;93703.84;6200393;23;20016;-79
2021/06/16 08:47:32;;;;;;;2.15;1.95;;;;;;;30.12;34.64;93709.47;6199240;23;20492;-79
2021/06/16 08:50:00;;;;;;;3.22;2.00;;;;;;;29.80;35.80;93706.47;6199488;23;20009;-79
2021/06/16 08:52:25;;;;;;;3.55;2.45;;;;;;;29.33;36.07;93716.44;6200087;23;20462;-80
2021/06/16 08:54:50;;;;;;;3.88;2.30;;;;;;;29.27;35.64;93720.78;6176469;23;20005;-82
2021/06/16 08:57:16;;;;;;;5.82;2.97;;;;;;;29.26;36.43;93724.69;6201342;23;20016;-79
2021/06/16 08:59:42;;;;;;;2.53;2.33;;;;;;;29.00;37.22;93723.44;6175361;23;20039;-79
2021/06/16 09:02:08;;;;;;;8.23;2.22;;;;;;;28.96;37.05;93728.16;6195145;23;20478;-79
2021/06/16 09:04:48;;;;;;;2.20;2.00;;;;;;;28.85;37.26;93722.84;6206216;23;20103;-78
2021/06/16 09:07:18;;;;;;;4.20;2.40;;;;;;;28.56;37.40;93732.44;6173151;23;20009;-79
2021/06/16 09:09:44;;;;;;;4.97;2.33;;;;;;;28.22;38.07;93739.75;6214749;23;20008;-78
2021/06/16 09:12:16;;;;;;;7.47;3.45;;;;;;;27.77;38.85;93734.22;6197493;23;20470;-79
2021/06/16 09:14:52;;;;;;;6.25;2.70;;;;;;;28.01;40.03;93741.44;6203288;23;20416;-79
2021/06/16 09:17:21;;;;;;;3.40;2.42;;;;;;;27.99;38.89;93741.06;6206367;23;20070;-80
2021/06/16 09:19:51;;;;;;;7.38;2.60;;;;;;;27.99;38.82;93732.91;6198952;23;20040;-79
2021/06/16 09:22:16;;;;;;;4.13;2.58;;;;;;;28.05;38.59;93737.94;6209236;23;20370;-79
2021/06/16 09:24:50;;;;;;;5.88;2.90;;;;;;;28.21;39.14;93733.53;6202921;23;20090;-79
2021/06/16 09:27:49;;;;;;;4.10;2.63;;;;;;;28.33;38.83;93745.88;6199686;23;20107;-79
2021/06/16 09:30:21;;;;;;;5.20;2.60;;;;;;;28.08;38.83;93747.97;6117225;23;20632;-78
2021/06/16 09:32:48;;;;;;;2.38;2.17;;;;;;;28.04;39.02;93755.38;6203426;23;20063;-79
2021/06/16 09:35:23;;;;;;;2.38;2.13;;;;;;;28.02;39.24;93731.34;6201493;23;20020;-79
2021/06/16 09:37:49;;;;;;;2.53;2.22;;;;;;;28.18;39.82;93745.22;6176199;23;20023;-77
2021/06/16 09:40:25;;;;;;;4.95;2.40;;;;;;;27.89;39.25;93741.16;6182157;23;20447;-79
2021/06/16 09:43:05;;;;;;;4.75;2.13;;;;;;;27.74;40.23;93743.19;6192356;23;20055;-78
2021/06/16 09:45:35;;;;;;;4.75;2.40;;;;;;;27.55;39.07;93743.69;6173944;23;20012;-78
2021/06/16 09:48:35;;;;;;;4.80;2.40;;;;;;;27.36;40.56;93749.59;6198398;23;20399;-79
2021/06/16 09:51:10;;;;;;;4.88;2.20;;;;;;;27.22;41.09;93755.09;6174755;23;20320;-78
2021/06/16 09:53:54;;;;;;;;;;;;;;;27.11;41.15;93752.41;6175157;23;20016;-79
2021/06/16 09:56:19;;;;;;;4.07;2.33;;;;;;;26.80;41.02;93740.47;6195850;23;19911;-79
2021/06/16 09:58:45;;;;;;;3.38;2.33;;;;;;;27.04;40.82;93745.06;6200530;23;20024;-78
2021/06/16 10:01:10;;;;;;;11.30;2.25;;;;;;;27.17;41.90;93756.25;6175191;23;20032;-78
2021/06/16 10:03:40;;;;;;;5.55;2.63;;;;;;;27.41;41.79;93755.38;6175957;23;20023;-78
2021/06/16 10:06:12;;;;;;;2.67;1.90;;;;;;;27.18;40.82;93755.06;6173450;23;20021;-77
2021/06/16 10:08:38;;;;;;;3.15;2.30;;;;;;;27.06;41.49;93761.72;6201850;23;20013;-79
2021/06/16 10:11:07;;;;;;;4.75;2.38;;;;;;;26.89;41.64;93765.25;6206080;23;20031;-77
2021/06/16 10:13:33;;;;;;;3.97;2.90;;;;;;;26.77;42.00;93764.88;6205015;23;20071;-79
2021/06/16 10:16:00;;;;;;;2.50;2.30;;;;;;;26.91;42.25;93771.06;6212296;23;20037;-79
2021/06/16 10:18:27;;;;;;;7.22;2.30;;;;;;;26.83;41.88;93766.78;6174258;23;20016;-79
2021/06/16 10:20:54;;;;;;;2.85;2.03;;;;;;;26.83;42.35;93766.78;6194843;23;20021;-78
2021/06/16 10:23:20;;;;;;;3.30;2.42;;;;;;;26.86;42.67;93766.06;6200060;23;20451;-79
2021/06/16 10:25:46;;;;;;;3.53;3.13;;;;;;;27.04;42.01;93763.28;6208008;23;20100;-78
2021/06/16 10:28:17;;;;;;;2.75;2.22;;;;;;;26.97;41.39;93772.22;6197363;23;20009;-78
2021/06/16 10:30:44;;;;;;;3.15;2.00;;;;;;;26.89;41.46;93757.13;6176278;23;20010;-79
2021/06/16 10:33:39;;;;;;;3.70;2.55;;;;;;;26.85;40.29;93764.47;6200735;23;20034;-79
2021/06/16 10:36:21;;;;;;;4.82;1.98;;;;;;;27.02;41.05;93760.97;6173203;23;20067;-78
2021/06/16 10:39:03;;;;;;;6.28;2.35;;;;;;;26.84;40.12;93752.06;6203732;23;20028;-78
2021/06/16 10:41:55;;;;;;;2.70;2.47;;;;;;;27.06;42.65;93740.03;6173735;23;20016;-79
2021/06/16 10:44:27;;;;;;;3.65;2.22;;;;;;;27.41;42.93;93743.75;6191986;23;20017;-79
2021/06/16 10:47:01;;;;;;;2.28;2.08;;;;;;;27.48;40.78;93757.25;6201565;23;20083;-78
2021/06/16 10:50:02;;;;;;;4.50;2.20;;;;;;;26.99;41.78;93747.41;6209696;23;20313;-79
2021/06/16 10:52:29;;;;;;;3.83;2.35;;;;;;;27.35;41.54;93739.91;6197791;23;20281;-78
2021/06/16 10:55:04;;;;;;;3.42;2.17;;;;;;;27.23;41.66;93746.53;6202497;23;20015;-79
2021/06/16 10:57:30;;;;;;;5.38;2.35;;;;;;;27.29;41.10;93765.88;6199032;23;20059;-80
2021/06/16 11:00:00;;;;;;;2.92;2.33;;;;;;;27.42;41.31;93728.97;6200034;23;20605;-79
2021/06/16 11:02:28;;;;;;;7.78;2.15;;;;;;;27.93;41.77;93761.66;6204019;23;20398;-79
2021/06/16 11:05:26;;;;;;;7.57;3.13;;;;;;;28.01;40.23;93755.00;6207027;23;20028;-79
2021/06/16 11:07:52;;;;;;;4.00;2.78;;;;;;;28.01;39.67;93755.00;6200304;23;20423;-78
2021/06/16 11:10:17;;;;;;;8.88;2.53;;;;;;;27.98;40.06;93760.47;6199068;23;20008;-78
2021/06/16 11:12:50;;;;;;;2.80;2.47;;;;;;;27.96;41.01;93755.44;6212705;23;20000;-79
2021/06/16 11:15:24;;;;;;;4.75;2.28;;;;;;;28.02;40.62;93748.41;6200680;23;20499;-78
2021/06/16 11:17:50;;;;;;;;;;;;;;;28.00;39.16;93750.75;6201806;23;20016;-79
2021/06/16 11:20:21;;;;;;;3.03;2.72;;;;;;;28.13;40.04;93742.16;6198856;23;19974;-79
2021/06/16 11:22:51;;;;;;;2.35;1.90;;;;;;;27.78;40.77;93746.66;6173341;23;20020;-79
2021/06/16 11:25:20;;;;;;;4.22;1.98;;;;;;;27.46;40.19;93748.75;6198908;23;19996;-79
2021/06/16 11:27:52;;;;;;;3.88;1.60;;;;;;;27.19;38.67;93751.19;6202745;23;20439;-78
2021/06/16 11:30:46;;;;;;;2.80;1.75;;;;;;;27.34;39.89;93747.25;6199465;23;20046;-79
2021/06/16 11:33:12;;;;;;;8.85;2.70;;;;;;;27.29;39.99;93749.59;6199962;23;20043;-78
2021/06/16 11:35:39;;;;;;;3.45;1.90;;;;;;;27.24;37.82;93726.38;6197057;23;20499;-79
2021/06/16 11:38:04;;;;;;;2.45;1.58;;;;;;;27.54;40.02;93736.72;6202180;23;20115;-78